sensor_id;sensor_type;location;lat;lon;timestamp;temperature;humidity
75994;DHT22;64680;53.800;9.988;2023-12-28T00:01:22;6.20;91.10
75994;DHT22;64680;53.800;9.988;2023-12-28T00:03:49;6.30;87.50
75994;DHT22;64680;53.800;9.988;2023-12-28T00:06:15;6.20;87.10
75994;DHT22;64680;53.800;9.988;2023-12-28T00:08:41;6.30;81.00
75994;DHT22;64680;53.800;9.988;2023-12-28T00:11:07;6.40;80.70
75994;DHT22;64680;53.800;9.988;2023-12-28T00:13:32;6.40;79.40
75994;DHT22;64680;53.800;9.988;2023-12-28T00:15:58;6.30;82.70
75994;DHT22;64680;53.800;9.988;2023-12-28T00:18:24;6.30;84.10
75994;DHT22;64680;53.800;9.988;2023-12-28T00:20:50;6.30;86.20
75994;DHT22;64680;53.800;9.988;2023-12-28T00:23:16;6.30;88.70
75994;DHT22;64680;53.800;9.988;2023-12-28T00:25:41;6.20;90.50
75994;DHT22;64680;53.800;9.988;2023-12-28T00:28:07;6.20;89.60
75994;DHT22;64680;53.800;9.988;2023-12-28T00:30:32;6.20;91.00
75994;DHT22;64680;53.800;9.988;2023-12-28T00:32:58;6.30;91.10
75994;DHT22;64680;53.800;9.988;2023-12-28T00:35:24;6.30;89.60
75994;DHT22;64680;53.800;9.988;2023-12-28T00:37:49;6.30;92.60
75994;DHT22;64680;53.800;9.988;2023-12-28T00:40:15;6.20;95.20
75994;DHT22;64680;53.800;9.988;2023-12-28T00:42:41;6.20;96.10
75994;DHT22;64680;53.800;9.988;2023-12-28T00:45:07;6.20;99.90
75994;DHT22;64680;53.800;9.988;2023-12-28T00:47:33;6.20;99.90
75994;DHT22;64680;53.800;9.988;2023-12-28T00:49:59;6.10;99.90
75994;DHT22;64680;53.800;9.988;2023-12-28T00:52:24;6.10;99.90
75994;DHT22;64680;53.800;9.988;2023-12-28T00:54:50;6.10;99.90
75994;DHT22;64680;53.800;9.988;2023-12-28T00:57:15;6.10;99.90
75994;DHT22;64680;53.800;9.988;2023-12-28T00:59:41;6.10;99.90
75994;DHT22;64680;53.800;9.988;2023-12-28T01:02:07;6.10;99.90
75994;DHT22;64680;53.800;9.988;2023-12-28T01:04:33;6.10;99.90
75994;DHT22;64680;53.800;9.988;2023-12-28T01:06:58;6.10;99.90
75994;DHT22;64680;53.800;9.988;2023-12-28T01:09:30;6.00;99.90
75994;DHT22;64680;53.800;9.988;2023-12-28T01:11:55;6.00;99.90
75994;DHT22;64680;53.800;9.988;2023-12-28T01:14:21;6.10;99.90
75994;DHT22;64680;53.800;9.988;2023-12-28T01:16:47;6.10;99.90
75994;DHT22;64680;53.800;9.988;2023-12-28T01:19:12;6.10;99.90
75994;DHT22;64680;53.800;9.988;2023-12-28T01:21:38;6.10;99.90
75994;DHT22;64680;53.800;9.988;2023-12-28T01:24:04;6.10;99.90
75994;DHT22;64680;53.800;9.988;2023-12-28T01:26:30;6.10;99.90
75994;DHT22;64680;53.800;9.988;2023-12-28T01:28:55;6.20;99.90
75994;DHT22;64680;53.800;9.988;2023-12-28T01:31:22;6.10;99.90
75994;DHT22;64680;53.800;9.988;2023-12-28T01:33:48;6.20;99.90
75994;DHT22;64680;53.800;9.988;2023-12-28T01:36:17;6.30;99.90
75994;DHT22;64680;53.800;9.988;2023-12-28T01:38:43;6.30;99.90
75994;DHT22;64680;53.800;9.988;2023-12-28T01:41:09;6.30;99.90
75994;DHT22;64680;53.800;9.988;2023-12-28T01:43:35;6.30;99.90
75994;DHT22;64680;53.800;9.988;2023-12-28T01:46:01;6.40;99.90
75994;DHT22;64680;53.800;9.988;2023-12-28T01:48:27;6.40;99.90
75994;DHT22;64680;53.800;9.988;2023-12-28T01:50:54;6.40;99.90
75994;DHT22;64680;53.800;9.988;2023-12-28T01:53:20;6.40;99.90
75994;DHT22;64680;53.800;9.988;2023-12-28T01:55:46;6.50;99.90
75994;DHT22;64680;53.800;9.988;2023-12-28T01:58:12;6.50;99.90
75994;DHT22;64680;53.800;9.988;2023-12-28T02:00:38;6.50;99.90
75994;DHT22;64680;53.800;9.988;2023-12-28T02:03:06;6.50;99.90
75994;DHT22;64680;53.800;9.988;2023-12-28T02:05:33;6.60;99.90
75994;DHT22;64680;53.800;9.988;2023-12-28T02:07:58;6.60;99.90
75994;DHT22;64680;53.800;9.988;2023-12-28T02:10:24;6.60;99.90
75994;DHT22;64680;53.800;9.988;2023-12-28T02:12:50;6.60;99.90
75994;DHT22;64680;53.800;9.988;2023-12-28T02:15:19;6.70;99.90
75994;DHT22;64680;53.800;9.988;2023-12-28T02:20:23;6.70;99.90
75994;DHT22;64680;53.800;9.988;2023-12-28T02:22:50;6.70;99.90
75994;DHT22;64680;53.800;9.988;2023-12-28T02:25:16;6.80;99.90
75994;DHT22;64680;53.800;9.988;2023-12-28T02:27:43;6.80;99.60
75994;DHT22;64680;53.800;9.988;2023-12-28T02:30:10;6.90;97.60
75994;DHT22;64680;53.800;9.988;2023-12-28T02:35:42;6.90;95.60
75994;DHT22;64680;53.800;9.988;2023-12-28T02:38:10;6.90;95.60
75994;DHT22;64680;53.800;9.988;2023-12-28T02:40:40;6.80;95.40
75994;DHT22;64680;53.800;9.988;2023-12-28T02:43:07;6.90;95.00
75994;DHT22;64680;53.800;9.988;2023-12-28T02:45:34;6.80;94.50
75994;DHT22;64680;53.800;9.988;2023-12-28T02:48:00;6.80;94.70
75994;DHT22;64680;53.800;9.988;2023-12-28T02:50:26;6.80;94.20
75994;DHT22;64680;53.800;9.988;2023-12-28T02:52:51;6.80;93.40
75994;DHT22;64680;53.800;9.988;2023-12-28T02:55:17;6.80;93.10
75994;DHT22;64680;53.800;9.988;2023-12-28T02:57:44;6.80;94.10
75994;DHT22;64680;53.800;9.988;2023-12-28T03:00:10;6.80;94.40
75994;DHT22;64680;53.800;9.988;2023-12-28T03:02:36;6.80;93.40
75994;DHT22;64680;53.800;9.988;2023-12-28T03:05:05;6.80;93.70
75994;DHT22;64680;53.800;9.988;2023-12-28T03:07:32;6.70;93.20
75994;DHT22;64680;53.800;9.988;2023-12-28T03:09:57;6.70;94.20
75994;DHT22;64680;53.800;9.988;2023-12-28T03:12:23;6.70;94.60
75994;DHT22;64680;53.800;9.988;2023-12-28T03:14:49;6.70;95.30
75994;DHT22;64680;53.800;9.988;2023-12-28T03:17:15;6.70;95.30
75994;DHT22;64680;53.800;9.988;2023-12-28T03:19:40;6.60;95.20
75994;DHT22;64680;53.800;9.988;2023-12-28T03:22:06;6.60;95.80
75994;DHT22;64680;53.800;9.988;2023-12-28T03:24:31;6.60;95.10
75994;DHT22;64680;53.800;9.988;2023-12-28T03:26:57;6.60;95.30
75994;DHT22;64680;53.800;9.988;2023-12-28T03:29:24;6.60;95.60
75994;DHT22;64680;53.800;9.988;2023-12-28T03:31:49;6.60;94.90
75994;DHT22;64680;53.800;9.988;2023-12-28T03:34:15;6.60;94.90
75994;DHT22;64680;53.800;9.988;2023-12-28T03:36:41;6.60;94.90
75994;DHT22;64680;53.800;9.988;2023-12-28T03:39:08;6.60;94.40
75994;DHT22;64680;53.800;9.988;2023-12-28T03:41:33;6.60;93.40
75994;DHT22;64680;53.800;9.988;2023-12-28T03:43:59;6.70;92.90
75994;DHT22;64680;53.800;9.988;2023-12-28T03:46:25;6.70;92.70
75994;DHT22;64680;53.800;9.988;2023-12-28T03:48:52;6.60;92.50
75994;DHT22;64680;53.800;9.988;2023-12-28T03:51:18;6.70;91.80
75994;DHT22;64680;53.800;9.988;2023-12-28T03:53:44;6.60;92.00
75994;DHT22;64680;53.800;9.988;2023-12-28T03:56:21;6.60;92.50
75994;DHT22;64680;53.800;9.988;2023-12-28T03:58:47;6.60;92.20
75994;DHT22;64680;53.800;9.988;2023-12-28T04:01:12;6.60;93.00
75994;DHT22;64680;53.800;9.988;2023-12-28T04:03:38;6.60;92.50
75994;DHT22;64680;53.800;9.988;2023-12-28T04:06:03;6.60;93.00
75994;DHT22;64680;53.800;9.988;2023-12-28T04:08:29;6.60;90.90
75994;DHT22;64680;53.800;9.988;2023-12-28T04:10:55;6.60;91.50
75994;DHT22;64680;53.800;9.988;2023-12-28T04:13:20;6.70;90.70
75994;DHT22;64680;53.800;9.988;2023-12-28T04:15:46;6.60;90.90
75994;DHT22;64680;53.800;9.988;2023-12-28T04:18:12;6.60;91.60
75994;DHT22;64680;53.800;9.988;2023-12-28T04:20:37;6.60;92.00
75994;DHT22;64680;53.800;9.988;2023-12-28T04:23:04;6.60;91.90
75994;DHT22;64680;53.800;9.988;2023-12-28T04:25:29;6.60;91.60
75994;DHT22;64680;53.800;9.988;2023-12-28T04:27:55;6.60;91.60
75994;DHT22;64680;53.800;9.988;2023-12-28T04:30:21;6.50;92.60
75994;DHT22;64680;53.800;9.988;2023-12-28T04:32:47;6.50;94.20
75994;DHT22;64680;53.800;9.988;2023-12-28T04:35:12;6.60;93.60
75994;DHT22;64680;53.800;9.988;2023-12-28T04:37:38;6.50;93.10
75994;DHT22;64680;53.800;9.988;2023-12-28T04:40:04;6.50;93.20
75994;DHT22;64680;53.800;9.988;2023-12-28T04:42:30;6.60;92.30
75994;DHT22;64680;53.800;9.988;2023-12-28T04:44:55;6.50;92.20
75994;DHT22;64680;53.800;9.988;2023-12-28T04:47:21;6.50;92.40
75994;DHT22;64680;53.800;9.988;2023-12-28T04:49:47;6.50;93.90
75994;DHT22;64680;53.800;9.988;2023-12-28T04:52:12;6.50;92.80
75994;DHT22;64680;53.800;9.988;2023-12-28T04:54:40;6.50;92.70
75994;DHT22;64680;53.800;9.988;2023-12-28T04:57:06;6.40;93.10
75994;DHT22;64680;53.800;9.988;2023-12-28T04:59:40;6.50;93.30
75994;DHT22;64680;53.800;9.988;2023-12-28T05:02:06;6.50;93.20
75994;DHT22;64680;53.800;9.988;2023-12-28T05:04:32;6.50;92.60
75994;DHT22;64680;53.800;9.988;2023-12-28T05:06:58;6.50;92.80
75994;DHT22;64680;53.800;9.988;2023-12-28T05:09:24;6.60;91.40
75994;DHT22;64680;53.800;9.988;2023-12-28T05:11:50;6.60;91.00
75994;DHT22;64680;53.800;9.988;2023-12-28T05:14:15;6.60;90.00
75994;DHT22;64680;53.800;9.988;2023-12-28T05:16:42;6.60;89.30
75994;DHT22;64680;53.800;9.988;2023-12-28T05:19:08;6.60;89.60
75994;DHT22;64680;53.800;9.988;2023-12-28T05:21:34;6.60;89.80
75994;DHT22;64680;53.800;9.988;2023-12-28T05:23:59;6.70;89.10
75994;DHT22;64680;53.800;9.988;2023-12-28T05:26:25;6.60;88.00
75994;DHT22;64680;53.800;9.988;2023-12-28T05:28:51;6.60;88.00
75994;DHT22;64680;53.800;9.988;2023-12-28T05:31:17;6.70;88.40
75994;DHT22;64680;53.800;9.988;2023-12-28T05:33:42;6.70;87.60
75994;DHT22;64680;53.800;9.988;2023-12-28T05:36:08;6.70;86.90
75994;DHT22;64680;53.800;9.988;2023-12-28T05:38:34;6.70;86.90
75994;DHT22;64680;53.800;9.988;2023-12-28T05:41:00;6.80;85.50
75994;DHT22;64680;53.800;9.988;2023-12-28T05:43:26;6.80;85.00
75994;DHT22;64680;53.800;9.988;2023-12-28T05:45:51;6.80;84.90
75994;DHT22;64680;53.800;9.988;2023-12-28T05:48:17;6.90;83.40
75994;DHT22;64680;53.800;9.988;2023-12-28T05:50:42;6.90;82.60
75994;DHT22;64680;53.800;9.988;2023-12-28T05:53:08;6.90;82.40
75994;DHT22;64680;53.800;9.988;2023-12-28T05:55:42;6.90;82.60
75994;DHT22;64680;53.800;9.988;2023-12-28T05:58:09;6.80;83.20
75994;DHT22;64680;53.800;9.988;2023-12-28T06:00:34;6.90;83.10
75994;DHT22;64680;53.800;9.988;2023-12-28T06:03:02;6.90;82.90
75994;DHT22;64680;53.800;9.988;2023-12-28T06:05:28;6.90;82.80
75994;DHT22;64680;53.800;9.988;2023-12-28T06:07:54;7.00;82.60
75994;DHT22;64680;53.800;9.988;2023-12-28T06:10:19;7.00;82.20
75994;DHT22;64680;53.800;9.988;2023-12-28T06:12:45;7.00;82.10
75994;DHT22;64680;53.800;9.988;2023-12-28T06:15:11;7.00;81.90
75994;DHT22;64680;53.800;9.988;2023-12-28T06:17:37;7.10;80.80
75994;DHT22;64680;53.800;9.988;2023-12-28T06:20:03;7.10;80.30
75994;DHT22;64680;53.800;9.988;2023-12-28T06:22:28;7.10;80.90
75994;DHT22;64680;53.800;9.988;2023-12-28T06:24:55;7.10;80.50
75994;DHT22;64680;53.800;9.988;2023-12-28T06:27:21;7.10;80.40
75994;DHT22;64680;53.800;9.988;2023-12-28T06:29:47;7.10;80.80
75994;DHT22;64680;53.800;9.988;2023-12-28T06:32:12;7.10;81.70
75994;DHT22;64680;53.800;9.988;2023-12-28T06:34:38;7.10;81.50
75994;DHT22;64680;53.800;9.988;2023-12-28T06:37:04;7.10;81.70
75994;DHT22;64680;53.800;9.988;2023-12-28T06:39:30;7.10;82.20
75994;DHT22;64680;53.800;9.988;2023-12-28T06:41:55;7.10;81.90
75994;DHT22;64680;53.800;9.988;2023-12-28T06:44:21;7.10;82.30
75994;DHT22;64680;53.800;9.988;2023-12-28T06:46:46;7.10;82.50
75994;DHT22;64680;53.800;9.988;2023-12-28T06:49:12;7.20;82.30
75994;DHT22;64680;53.800;9.988;2023-12-28T06:51:38;7.20;82.00
75994;DHT22;64680;53.800;9.988;2023-12-28T06:54:03;7.30;82.40
75994;DHT22;64680;53.800;9.988;2023-12-28T06:56:29;7.40;80.20
75994;DHT22;64680;53.800;9.988;2023-12-28T06:58:55;7.50;77.60
75994;DHT22;64680;53.800;9.988;2023-12-28T07:01:21;7.60;78.30
75994;DHT22;64680;53.800;9.988;2023-12-28T07:03:46;7.60;77.00
75994;DHT22;64680;53.800;9.988;2023-12-28T07:06:14;7.70;74.70
75994;DHT22;64680;53.800;9.988;2023-12-28T07:08:39;7.70;73.50
75994;DHT22;64680;53.800;9.988;2023-12-28T07:11:05;7.70;74.30
75994;DHT22;64680;53.800;9.988;2023-12-28T07:13:31;7.80;74.10
75994;DHT22;64680;53.800;9.988;2023-12-28T07:15:57;7.70;73.60
75994;DHT22;64680;53.800;9.988;2023-12-28T07:18:23;7.80;71.90
75994;DHT22;64680;53.800;9.988;2023-12-28T07:20:51;7.80;71.00
75994;DHT22;64680;53.800;9.988;2023-12-28T07:23:16;7.80;70.80
75994;DHT22;64680;53.800;9.988;2023-12-28T07:25:42;7.80;70.10
75994;DHT22;64680;53.800;9.988;2023-12-28T07:28:08;7.80;70.10
75994;DHT22;64680;53.800;9.988;2023-12-28T07:30:34;7.90;68.30
75994;DHT22;64680;53.800;9.988;2023-12-28T07:32:59;7.90;68.40
75994;DHT22;64680;53.800;9.988;2023-12-28T07:35:25;7.90;68.30
75994;DHT22;64680;53.800;9.988;2023-12-28T07:37:50;7.90;66.80
75994;DHT22;64680;53.800;9.988;2023-12-28T07:40:16;8.00;66.10
75994;DHT22;64680;53.800;9.988;2023-12-28T07:42:42;8.00;66.00
75994;DHT22;64680;53.800;9.988;2023-12-28T07:45:07;7.90;66.10
75994;DHT22;64680;53.800;9.988;2023-12-28T07:47:33;7.80;68.00
75994;DHT22;64680;53.800;9.988;2023-12-28T07:49:59;7.90;66.40
75994;DHT22;64680;53.800;9.988;2023-12-28T07:52:26;7.90;66.80
75994;DHT22;64680;53.800;9.988;2023-12-28T07:54:51;7.80;67.30
75994;DHT22;64680;53.800;9.988;2023-12-28T07:57:17;7.80;69.10
75994;DHT22;64680;53.800;9.988;2023-12-28T07:59:43;7.90;68.10
75994;DHT22;64680;53.800;9.988;2023-12-28T08:02:09;7.90;67.90
75994;DHT22;64680;53.800;9.988;2023-12-28T08:04:35;7.90;68.30
75994;DHT22;64680;53.800;9.988;2023-12-28T08:07:00;8.00;67.90
75994;DHT22;64680;53.800;9.988;2023-12-28T08:09:26;8.00;67.00
75994;DHT22;64680;53.800;9.988;2023-12-28T08:11:52;8.00;65.70
75994;DHT22;64680;53.800;9.988;2023-12-28T08:14:18;8.00;65.50
75994;DHT22;64680;53.800;9.988;2023-12-28T08:16:44;8.00;64.90
75994;DHT22;64680;53.800;9.988;2023-12-28T08:19:10;8.00;65.30
75994;DHT22;64680;53.800;9.988;2023-12-28T08:21:36;8.10;64.40
75994;DHT22;64680;53.800;9.988;2023-12-28T08:24:02;8.20;63.40
75994;DHT22;64680;53.800;9.988;2023-12-28T08:26:29;8.30;62.70
75994;DHT22;64680;53.800;9.988;2023-12-28T08:28:54;8.40;60.30
75994;DHT22;64680;53.800;9.988;2023-12-28T08:31:20;8.40;59.30
75994;DHT22;64680;53.800;9.988;2023-12-28T08:33:45;8.40;59.20
75994;DHT22;64680;53.800;9.988;2023-12-28T08:36:11;8.50;57.70
75994;DHT22;64680;53.800;9.988;2023-12-28T08:38:37;8.60;57.00
75994;DHT22;64680;53.800;9.988;2023-12-28T08:41:03;8.50;57.50
75994;DHT22;64680;53.800;9.988;2023-12-28T08:43:35;8.50;57.70
75994;DHT22;64680;53.800;9.988;2023-12-28T08:46:01;8.60;55.70
75994;DHT22;64680;53.800;9.988;2023-12-28T08:48:27;8.60;55.70
75994;DHT22;64680;53.800;9.988;2023-12-28T08:50:53;8.70;56.10
75994;DHT22;64680;53.800;9.988;2023-12-28T08:53:18;8.70;56.10
75994;DHT22;64680;53.800;9.988;2023-12-28T08:55:44;8.70;56.10
75994;DHT22;64680;53.800;9.988;2023-12-28T08:58:10;8.70;56.60
75994;DHT22;64680;53.800;9.988;2023-12-28T09:00:35;8.70;57.50
75994;DHT22;64680;53.800;9.988;2023-12-28T09:03:01;8.70;57.30
75994;DHT22;64680;53.800;9.988;2023-12-28T09:05:26;8.80;56.80
75994;DHT22;64680;53.800;9.988;2023-12-28T09:07:52;8.80;55.40
75994;DHT22;64680;53.800;9.988;2023-12-28T09:10:18;8.90;54.90
75994;DHT22;64680;53.800;9.988;2023-12-28T09:12:43;9.00;52.80
75994;DHT22;64680;53.800;9.988;2023-12-28T09:15:09;9.00;51.40
75994;DHT22;64680;53.800;9.988;2023-12-28T09:17:35;9.10;51.30
75994;DHT22;64680;53.800;9.988;2023-12-28T09:20:01;9.10;51.20
75994;DHT22;64680;53.800;9.988;2023-12-28T09:22:27;9.10;51.00
75994;DHT22;64680;53.800;9.988;2023-12-28T09:24:52;9.20;49.30
75994;DHT22;64680;53.800;9.988;2023-12-28T09:27:18;9.40;46.30
75994;DHT22;64680;53.800;9.988;2023-12-28T09:29:44;9.40;45.60
75994;DHT22;64680;53.800;9.988;2023-12-28T09:32:10;9.40;44.10
75994;DHT22;64680;53.800;9.988;2023-12-28T09:34:35;9.40;44.60
75994;DHT22;64680;53.800;9.988;2023-12-28T09:37:01;9.40;45.40
75994;DHT22;64680;53.800;9.988;2023-12-28T09:39:27;9.30;44.10
75994;DHT22;64680;53.800;9.988;2023-12-28T09:41:59;9.40;43.20
75994;DHT22;64680;53.800;9.988;2023-12-28T09:44:29;9.40;43.60
75994;DHT22;64680;53.800;9.988;2023-12-28T09:46:56;9.40;44.30
75994;DHT22;64680;53.800;9.988;2023-12-28T09:49:23;9.30;43.40
75994;DHT22;64680;53.800;9.988;2023-12-28T09:51:49;9.40;43.80
75994;DHT22;64680;53.800;9.988;2023-12-28T09:54:14;9.50;41.40
75994;DHT22;64680;53.800;9.988;2023-12-28T09:56:40;9.50;41.90
75994;DHT22;64680;53.800;9.988;2023-12-28T09:59:07;9.60;40.60
75994;DHT22;64680;53.800;9.988;2023-12-28T10:01:34;9.70;37.70
75994;DHT22;64680;53.800;9.988;2023-12-28T10:04:00;9.70;37.10
75994;DHT22;64680;53.800;9.988;2023-12-28T10:06:28;9.80;36.60
75994;DHT22;64680;53.800;9.988;2023-12-28T10:08:54;9.80;36.30
75994;DHT22;64680;53.800;9.988;2023-12-28T10:11:21;9.80;35.50
75994;DHT22;64680;53.800;9.988;2023-12-28T10:13:48;9.90;32.10
75994;DHT22;64680;53.800;9.988;2023-12-28T10:16:15;9.90;31.60
75994;DHT22;64680;53.800;9.988;2023-12-28T10:18:44;9.90;30.70
75994;DHT22;64680;53.800;9.988;2023-12-28T10:21:11;10.00;30.70
75994;DHT22;64680;53.800;9.988;2023-12-28T10:23:37;10.00;30.70
75994;DHT22;64680;53.800;9.988;2023-12-28T10:26:04;10.00;30.50
75994;DHT22;64680;53.800;9.988;2023-12-28T10:28:35;10.00;29.80
75994;DHT22;64680;53.800;9.988;2023-12-28T10:31:03;10.00;29.00
75994;DHT22;64680;53.800;9.988;2023-12-28T10:33:37;10.10;29.50
75994;DHT22;64680;53.800;9.988;2023-12-28T10:36:07;10.10;29.70
75994;DHT22;64680;53.800;9.988;2023-12-28T10:38:37;10.00;27.80
75994;DHT22;64680;53.800;9.988;2023-12-28T10:41:07;10.10;26.70
75994;DHT22;64680;53.800;9.988;2023-12-28T10:43:46;10.20;26.60
75994;DHT22;64680;53.800;9.988;2023-12-28T10:46:26;10.20;26.40
75994;DHT22;64680;53.800;9.988;2023-12-28T10:49:18;10.30;25.10
75994;DHT22;64680;53.800;9.988;2023-12-28T10:51:47;10.40;24.30
75994;DHT22;64680;53.800;9.988;2023-12-28T10:56:55;10.50;22.20
75994;DHT22;64680;53.800;9.988;2023-12-28T11:00:10;10.40;21.40
75994;DHT22;64680;53.800;9.988;2023-12-28T11:02:48;10.40;21.90
75994;DHT22;64680;53.800;9.988;2023-12-28T11:05:19;10.40;22.70
75994;DHT22;64680;53.800;9.988;2023-12-28T11:07:47;10.40;22.70
75994;DHT22;64680;53.800;9.988;2023-12-28T11:10:13;10.40;21.60
75994;DHT22;64680;53.800;9.988;2023-12-28T11:12:39;10.40;21.30
75994;DHT22;64680;53.800;9.988;2023-12-28T11:15:06;10.40;22.70
75994;DHT22;64680;53.800;9.988;2023-12-28T11:17:35;10.30;22.40
75994;DHT22;64680;53.800;9.988;2023-12-28T11:20:03;10.30;22.80
75994;DHT22;64680;53.800;9.988;2023-12-28T11:22:31;10.30;23.20
75994;DHT22;64680;53.800;9.988;2023-12-28T11:25:00;10.20;23.80
75994;DHT22;64680;53.800;9.988;2023-12-28T11:27:25;10.20;25.00
75994;DHT22;64680;53.800;9.988;2023-12-28T11:29:58;10.20;24.80
75994;DHT22;64680;53.800;9.988;2023-12-28T11:32:24;10.20;24.20
75994;DHT22;64680;53.800;9.988;2023-12-28T11:34:59;10.30;25.20
75994;DHT22;64680;53.800;9.988;2023-12-28T11:37:26;10.30;21.90
75994;DHT22;64680;53.800;9.988;2023-12-28T11:39:52;10.30;23.50
75994;DHT22;64680;53.800;9.988;2023-12-28T11:42:21;10.30;20.90
75994;DHT22;64680;53.800;9.988;2023-12-28T11:44:48;10.20;23.90
75994;DHT22;64680;53.800;9.988;2023-12-28T11:47:22;10.20;25.70
75994;DHT22;64680;53.800;9.988;2023-12-28T11:49:48;10.20;26.70
75994;DHT22;64680;53.800;9.988;2023-12-28T11:52:30;10.20;28.00
75994;DHT22;64680;53.800;9.988;2023-12-28T11:54:57;10.10;29.30
75994;DHT22;64680;53.800;9.988;2023-12-28T11:57:23;10.10;28.00
75994;DHT22;64680;53.800;9.988;2023-12-28T11:59:53;10.10;29.10
75994;DHT22;64680;53.800;9.988;2023-12-28T12:02:20;10.10;30.60
75994;DHT22;64680;53.800;9.988;2023-12-28T12:04:45;10.10;28.60
75994;DHT22;64680;53.800;9.988;2023-12-28T12:07:11;10.10;29.30
75994;DHT22;64680;53.800;9.988;2023-12-28T12:09:37;10.20;27.80
75994;DHT22;64680;53.800;9.988;2023-12-28T12:12:03;10.20;26.60
75994;DHT22;64680;53.800;9.988;2023-12-28T12:14:30;10.20;26.50
75994;DHT22;64680;53.800;9.988;2023-12-28T12:16:58;10.20;27.00
75994;DHT22;64680;53.800;9.988;2023-12-28T12:19:24;10.30;27.70
75994;DHT22;64680;53.800;9.988;2023-12-28T12:21:55;10.30;26.00
75994;DHT22;64680;53.800;9.988;2023-12-28T12:24:21;10.40;24.30
75994;DHT22;64680;53.800;9.988;2023-12-28T12:26:47;10.30;23.60
75994;DHT22;64680;53.800;9.988;2023-12-28T12:29:14;10.40;24.00
75994;DHT22;64680;53.800;9.988;2023-12-28T12:31:43;10.40;23.10
75994;DHT22;64680;53.800;9.988;2023-12-28T12:34:10;10.40;22.50
75994;DHT22;64680;53.800;9.988;2023-12-28T12:36:37;10.40;24.00
75994;DHT22;64680;53.800;9.988;2023-12-28T12:39:03;10.40;24.20
75994;DHT22;64680;53.800;9.988;2023-12-28T12:41:34;10.40;24.50
75994;DHT22;64680;53.800;9.988;2023-12-28T12:44:00;10.40;25.90
75994;DHT22;64680;53.800;9.988;2023-12-28T12:46:26;10.40;26.30
75994;DHT22;64680;53.800;9.988;2023-12-28T12:48:59;10.40;26.30
75994;DHT22;64680;53.800;9.988;2023-12-28T12:51:26;10.40;25.80
75994;DHT22;64680;53.800;9.988;2023-12-28T12:53:58;10.40;27.50
75994;DHT22;64680;53.800;9.988;2023-12-28T12:56:26;10.30;27.50
75994;DHT22;64680;53.800;9.988;2023-12-28T12:58:53;10.30;27.80
75994;DHT22;64680;53.800;9.988;2023-12-28T13:01:19;10.20;28.10
75994;DHT22;64680;53.800;9.988;2023-12-28T13:03:46;10.20;26.30
75994;DHT22;64680;53.800;9.988;2023-12-28T13:06:11;10.20;27.60
75994;DHT22;64680;53.800;9.988;2023-12-28T13:08:37;10.20;27.00
75994;DHT22;64680;53.800;9.988;2023-12-28T13:11:03;10.20;26.50
75994;DHT22;64680;53.800;9.988;2023-12-28T13:13:29;10.20;26.60
75994;DHT22;64680;53.800;9.988;2023-12-28T13:15:55;10.20;25.70
75994;DHT22;64680;53.800;9.988;2023-12-28T13:18:24;10.20;27.20
75994;DHT22;64680;53.800;9.988;2023-12-28T13:20:50;10.10;27.90
75994;DHT22;64680;53.800;9.988;2023-12-28T13:23:20;10.20;28.00
75994;DHT22;64680;53.800;9.988;2023-12-28T13:25:52;10.20;26.20
75994;DHT22;64680;53.800;9.988;2023-12-28T13:28:23;10.20;27.50
75994;DHT22;64680;53.800;9.988;2023-12-28T13:30:48;10.20;26.20
75994;DHT22;64680;53.800;9.988;2023-12-28T13:33:16;10.20;26.90
75994;DHT22;64680;53.800;9.988;2023-12-28T13:35:42;10.10;28.70
75994;DHT22;64680;53.800;9.988;2023-12-28T13:38:08;10.00;29.40
75994;DHT22;64680;53.800;9.988;2023-12-28T13:40:33;10.00;30.60
75994;DHT22;64680;53.800;9.988;2023-12-28T13:42:59;10.00;29.80
75994;DHT22;64680;53.800;9.988;2023-12-28T13:45:25;10.00;30.00
75994;DHT22;64680;53.800;9.988;2023-12-28T13:47:51;9.90;30.50
75994;DHT22;64680;53.800;9.988;2023-12-28T13:50:16;10.00;29.40
75994;DHT22;64680;53.800;9.988;2023-12-28T13:52:42;10.00;29.60
75994;DHT22;64680;53.800;9.988;2023-12-28T13:55:07;10.00;30.50
75994;DHT22;64680;53.800;9.988;2023-12-28T13:57:33;10.00;33.10
75994;DHT22;64680;53.800;9.988;2023-12-28T13:59:59;9.90;32.90
75994;DHT22;64680;53.800;9.988;2023-12-28T14:02:27;9.90;33.00
75994;DHT22;64680;53.800;9.988;2023-12-28T14:04:52;9.80;33.50
75994;DHT22;64680;53.800;9.988;2023-12-28T14:07:19;9.80;32.70
75994;DHT22;64680;53.800;9.988;2023-12-28T14:09:45;9.80;32.20
75994;DHT22;64680;53.800;9.988;2023-12-28T14:12:10;9.80;31.90
75994;DHT22;64680;53.800;9.988;2023-12-28T14:14:36;9.90;31.50
75994;DHT22;64680;53.800;9.988;2023-12-28T14:17:01;9.90;31.10
75994;DHT22;64680;53.800;9.988;2023-12-28T14:19:29;9.90;32.20
75994;DHT22;64680;53.800;9.988;2023-12-28T14:21:55;9.90;31.60
75994;DHT22;64680;53.800;9.988;2023-12-28T14:24:21;9.90;32.40
75994;DHT22;64680;53.800;9.988;2023-12-28T14:26:47;9.80;33.70
75994;DHT22;64680;53.800;9.988;2023-12-28T14:29:15;9.80;35.20
75994;DHT22;64680;53.800;9.988;2023-12-28T14:31:41;9.80;35.90
75994;DHT22;64680;53.800;9.988;2023-12-28T14:34:07;9.70;36.40
75994;DHT22;64680;53.800;9.988;2023-12-28T14:36:37;9.70;37.40
75994;DHT22;64680;53.800;9.988;2023-12-28T14:39:05;9.70;37.80
75994;DHT22;64680;53.800;9.988;2023-12-28T14:41:32;9.70;38.00
75994;DHT22;64680;53.800;9.988;2023-12-28T14:43:58;9.60;39.00
75994;DHT22;64680;53.800;9.988;2023-12-28T14:46:24;9.60;39.40
75994;DHT22;64680;53.800;9.988;2023-12-28T14:48:51;9.60;39.60
75994;DHT22;64680;53.800;9.988;2023-12-28T14:51:16;9.60;38.80
75994;DHT22;64680;53.800;9.988;2023-12-28T14:53:42;9.60;39.40
75994;DHT22;64680;53.800;9.988;2023-12-28T14:56:08;9.60;39.60
75994;DHT22;64680;53.800;9.988;2023-12-28T14:58:34;9.60;38.60
75994;DHT22;64680;53.800;9.988;2023-12-28T15:00:59;9.60;38.30
75994;DHT22;64680;53.800;9.988;2023-12-28T15:03:25;9.60;37.30
75994;DHT22;64680;53.800;9.988;2023-12-28T15:05:51;9.60;36.80
75994;DHT22;64680;53.800;9.988;2023-12-28T15:08:17;9.60;37.80
75994;DHT22;64680;53.800;9.988;2023-12-28T15:10:43;9.60;38.00
75994;DHT22;64680;53.800;9.988;2023-12-28T15:13:10;9.60;38.80
75994;DHT22;64680;53.800;9.988;2023-12-28T15:15:36;9.50;38.70
75994;DHT22;64680;53.800;9.988;2023-12-28T15:18:02;9.50;37.80
75994;DHT22;64680;53.800;9.988;2023-12-28T15:20:28;9.50;37.80
75994;DHT22;64680;53.800;9.988;2023-12-28T15:22:55;9.50;35.90
75994;DHT22;64680;53.800;9.988;2023-12-28T15:25:21;9.50;35.80
75994;DHT22;64680;53.800;9.988;2023-12-28T15:27:46;9.50;35.70
75994;DHT22;64680;53.800;9.988;2023-12-28T15:30:13;9.50;35.80
75994;DHT22;64680;53.800;9.988;2023-12-28T15:32:40;9.50;36.50
75994;DHT22;64680;53.800;9.988;2023-12-28T15:35:06;9.50;36.30
75994;DHT22;64680;53.800;9.988;2023-12-28T15:37:32;9.50;35.90
75994;DHT22;64680;53.800;9.988;2023-12-28T15:39:58;9.50;35.10
75994;DHT22;64680;53.800;9.988;2023-12-28T15:42:26;9.60;34.60
75994;DHT22;64680;53.800;9.988;2023-12-28T15:44:52;9.60;33.30
75994;DHT22;64680;53.800;9.988;2023-12-28T15:47:17;9.60;33.10